Decoded Metar for KHBR (HOBART in OK, USA) (IATA:HBR) | Meteo·Mobile Aviation Weather
aviador You're here:

KHBR Decoded Metar

HOBART in OK, USA
Report Time2019-06-18 13:53:00
UTC Time2019-06-18 14:39:09
Flight Rules vfr VFR
Wind280° at 04 kt
W.Decomp.*RWY 30: 3.6 kt HW 1.8 kt LCW
RWY 21: 1.8 kt HW 3.6 kt RCW
RWY 35: 0.9 kt HW 3.9 kt LCW
Visibility9999 m
Phenomena:N/A
Clouds:N/A
Expected CloudBase > 1,600 ft AGL from Temp-Dew spread
CeilingNone
Temp23°C (ISA +11)
Dew Point19°C (78% RH)
QNH1015 hPa
Density Alt3,068 ft
Elevation1,552 ft
Report Wrong Elevation
Raw Report
KHBR 181353Z AUTO 28004KT 10SM CLR 23/19 A2996 RMK AO2 RAE1256
SLP129 P0000 T02330194=

Extra information for KHBR:More info

Metar Taf Metar & Taf Last 4 Metars F.Rules Stats Wind Profile Meteogram Temp Stats Airport Information Weather charts Add Link Nearby VenuesMetar ALERT Operation Metar Decoded Social comments

AIRNAV info for KHBR